createdAt,value
2022-07-27T00:01:50.609Z,21.08
2022-07-27T00:04:19.017Z,21.04
2022-07-27T00:06:46.482Z,21.00
2022-07-27T00:09:13.578Z,20.98
2022-07-27T00:11:40.584Z,20.94
2022-07-27T00:14:07.441Z,20.91
2022-07-27T00:16:34.362Z,20.88
2022-07-27T00:19:01.241Z,20.85
2022-07-27T00:21:28.114Z,20.81
2022-07-27T00:23:56.400Z,20.79
2022-07-27T00:26:23.231Z,20.75
2022-07-27T00:28:50.701Z,20.73
2022-07-27T00:31:17.983Z,20.71
2022-07-27T00:33:45.064Z,20.68
2022-07-27T00:36:12.036Z,20.66
2022-07-27T00:38:39.030Z,20.63
2022-07-27T00:41:05.952Z,20.61
2022-07-27T00:43:33.843Z,20.58
2022-07-27T00:46:04.957Z,20.53
2022-07-27T00:48:32.234Z,20.52
2022-07-27T00:50:59.573Z,20.50
2022-07-27T00:53:26.482Z,20.49
2022-07-27T00:55:53.347Z,20.48
2022-07-27T00:58:20.141Z,20.47
2022-07-27T01:00:46.935Z,20.46
2022-07-27T01:03:16.318Z,20.44
2022-07-27T01:05:44.015Z,20.43
2022-07-27T01:08:15.188Z,20.42
2022-07-27T01:10:43.627Z,20.41
2022-07-27T01:13:13.049Z,20.40
2022-07-27T01:15:41.522Z,20.40
2022-07-27T01:18:15.174Z,20.38
2022-07-27T01:20:42.962Z,20.37
2022-07-27T01:23:11.023Z,20.36
2022-07-27T01:25:41.647Z,20.35
2022-07-27T01:28:08.470Z,20.34
2022-07-27T01:30:35.553Z,20.31
2022-07-27T01:33:08.039Z,20.31
2022-07-27T01:35:36.946Z,20.28
2022-07-27T01:38:04.598Z,20.28
2022-07-27T01:40:31.921Z,20.25
2022-07-27T01:42:58.715Z,20.22
2022-07-27T01:45:25.708Z,20.21
2022-07-27T01:47:52.494Z,20.18
2022-07-27T01:50:19.404Z,20.16
2022-07-27T01:52:46.265Z,20.14
2022-07-27T01:55:13.084Z,20.12
2022-07-27T01:57:40.259Z,20.08
2022-07-27T02:00:11.145Z,20.06
2022-07-27T02:02:38.493Z,20.02
2022-07-27T02:05:06.036Z,19.99
2022-07-27T02:07:32.963Z,19.97
2022-07-27T02:09:59.791Z,19.95
2022-07-27T02:12:35.483Z,19.91
2022-07-27T02:15:14.898Z,19.88
2022-07-27T02:17:45.063Z,19.85
2022-07-27T02:20:15.349Z,19.83
2022-07-27T02:22:43.033Z,19.81
2022-07-27T02:25:12.175Z,19.79
2022-07-27T02:27:43.145Z,19.78
2022-07-27T02:30:12.306Z,19.75
2022-07-27T02:32:44.100Z,19.73
2022-07-27T02:35:18.831Z,19.70
2022-07-27T02:37:48.519Z,19.70
2022-07-27T02:40:17.492Z,19.67
2022-07-27T02:42:45.713Z,19.65
2022-07-27T02:45:13.489Z,19.63
2022-07-27T02:47:40.425Z,19.62
2022-07-27T02:50:09.826Z,19.60
2022-07-27T02:52:37.376Z,19.59
2022-07-27T02:55:05.426Z,19.58
2022-07-27T02:57:34.352Z,19.57
2022-07-27T03:00:07.437Z,19.55
2022-07-27T03:02:34.243Z,19.53
2022-07-27T03:05:01.098Z,19.52
2022-07-27T03:07:27.976Z,19.50
2022-07-27T03:09:54.774Z,19.48
2022-07-27T03:12:21.553Z,19.45
2022-07-27T03:14:48.342Z,19.43
2022-07-27T03:17:15.120Z,19.41
2022-07-27T03:19:41.933Z,19.38
2022-07-27T03:22:08.879Z,19.37
2022-07-27T03:24:35.708Z,19.33
2022-07-27T03:27:02.491Z,19.32
2022-07-27T03:29:29.449Z,19.30
2022-07-27T03:31:56.525Z,19.27
2022-07-27T03:34:23.522Z,19.28
2022-07-27T03:36:50.517Z,19.26
2022-07-27T03:39:17.497Z,19.25
2022-07-27T03:41:44.286Z,19.25
2022-07-27T03:44:11.083Z,19.24
2022-07-27T03:46:37.940Z,19.25
2022-07-27T03:49:14.441Z,19.26
2022-07-27T03:51:42.164Z,19.26
2022-07-27T03:54:08.968Z,19.26
2022-07-27T03:56:35.943Z,19.27
2022-07-27T03:59:02.827Z,19.28
2022-07-27T04:01:29.774Z,19.31
2022-07-27T04:03:56.609Z,19.31
2022-07-27T04:06:23.405Z,19.33
2022-07-27T04:08:50.769Z,19.34
2022-07-27T04:11:20.702Z,19.37
2022-07-27T04:13:51.845Z,19.41
2022-07-27T04:16:18.841Z,19.43
2022-07-27T04:18:45.718Z,19.45
2022-07-27T04:21:13.334Z,19.48
2022-07-27T04:23:40.136Z,19.48
2022-07-27T04:26:06.963Z,19.51
2022-07-27T04:28:34.905Z,19.51
2022-07-27T04:31:01.775Z,19.52
2022-07-27T04:33:28.871Z,19.54
2022-07-27T04:35:55.827Z,19.55
2022-07-27T04:38:22.752Z,19.54
2022-07-27T04:40:50.484Z,19.53
2022-07-27T04:43:19.106Z,19.53
2022-07-27T04:45:47.458Z,19.54
2022-07-27T04:48:14.570Z,19.56
2022-07-27T04:50:43.199Z,19.58
2022-07-27T04:53:11.332Z,19.59
2022-07-27T04:55:42.126Z,19.61
2022-07-27T04:58:09.178Z,19.61
2022-07-27T05:00:36.117Z,19.63
2022-07-27T05:03:03.320Z,19.66
2022-07-27T05:05:30.614Z,19.72
2022-07-27T05:07:57.587Z,19.74
2022-07-27T05:10:25.510Z,19.76
2022-07-27T05:12:52.332Z,19.81
2022-07-27T05:15:19.329Z,19.85
2022-07-27T05:17:46.353Z,19.91
2022-07-27T05:20:13.838Z,20.00
2022-07-27T05:22:40.641Z,20.09
2022-07-27T05:25:08.330Z,20.20
2022-07-27T05:27:37.095Z,20.41
2022-07-27T05:30:06.242Z,20.78
2022-07-27T05:32:33.235Z,21.17
2022-07-27T05:35:00.053Z,21.59
2022-07-27T05:37:26.885Z,22.02
2022-07-27T05:39:53.698Z,22.48
2022-07-27T05:42:20.465Z,22.97
2022-07-27T05:44:47.270Z,23.35
2022-07-27T05:47:14.147Z,23.73
2022-07-27T05:49:40.985Z,23.93
2022-07-27T05:52:07.794Z,24.07
2022-07-27T05:54:34.655Z,24.22
2022-07-27T05:57:01.454Z,24.17
2022-07-27T05:59:29.389Z,24.09
2022-07-27T06:01:56.192Z,24.07
2022-07-27T06:04:22.980Z,24.12
2022-07-27T06:07:08.181Z,24.17
2022-07-27T06:09:34.996Z,24.36
2022-07-27T06:12:02.122Z,24.64
2022-07-27T06:14:28.900Z,24.90
2022-07-27T06:16:55.816Z,25.19
2022-07-27T06:19:22.651Z,25.39
2022-07-27T06:21:53.590Z,25.64
2022-07-27T06:24:20.821Z,25.77
2022-07-27T06:26:47.615Z,25.78
2022-07-27T06:29:15.146Z,25.68
2022-07-27T06:31:42.243Z,25.56
2022-07-27T06:34:11.739Z,25.58
2022-07-27T06:36:41.117Z,25.69
2022-07-27T06:39:08.213Z,25.85
2022-07-27T06:41:35.129Z,25.99
2022-07-27T06:44:01.917Z,26.16
2022-07-27T06:46:28.819Z,26.12
2022-07-27T06:48:56.711Z,25.96
2022-07-27T06:51:24.359Z,25.87
2022-07-27T06:53:54.370Z,25.83
2022-07-27T06:56:22.141Z,25.94
2022-07-27T06:58:49.360Z,26.05
2022-07-27T07:01:16.326Z,26.09
2022-07-27T07:03:43.386Z,26.05
2022-07-27T07:06:10.561Z,25.95
2022-07-27T07:08:37.342Z,25.95
2022-07-27T07:11:04.340Z,25.99
2022-07-27T07:13:34.167Z,26.20
2022-07-27T07:16:04.492Z,26.49
2022-07-27T07:18:31.336Z,26.81
2022-07-27T07:20:58.957Z,26.92
2022-07-27T07:23:25.724Z,27.21
2022-07-27T07:25:52.603Z,27.56
2022-07-27T07:28:22.100Z,27.27
2022-07-27T07:30:49.644Z,26.76
2022-07-27T07:33:16.511Z,26.36
2022-07-27T07:36:13.440Z,26.09
2022-07-27T07:38:30.340Z,26.21
2022-07-27T07:40:57.140Z,26.48
2022-07-27T07:43:24.045Z,26.72
2022-07-27T07:45:52.222Z,27.23
2022-07-27T07:48:23.060Z,27.38
2022-07-27T07:50:52.999Z,27.13
2022-07-27T07:53:22.636Z,27.01
2022-07-27T07:55:50.182Z,26.88
2022-07-27T07:58:16.963Z,26.77
2022-07-27T08:00:43.909Z,26.78
2022-07-27T08:03:10.996Z,26.66
2022-07-27T08:05:37.955Z,26.51
2022-07-27T08:08:05.038Z,26.20
2022-07-27T08:10:32.097Z,25.77
2022-07-27T08:12:58.935Z,25.54
2022-07-27T08:15:35.428Z,25.87
2022-07-27T08:18:07.306Z,26.42
2022-07-27T08:20:34.735Z,26.97
2022-07-27T08:23:02.254Z,27.14
2022-07-27T08:25:29.450Z,27.00
2022-07-27T08:27:56.537Z,26.51
2022-07-27T08:30:24.005Z,26.07
2022-07-27T08:33:01.183Z,25.69
2022-07-27T08:35:29.466Z,25.55
2022-07-27T08:37:57.054Z,25.50
2022-07-27T08:40:42.964Z,25.56
2022-07-27T08:43:18.940Z,25.63
2022-07-27T08:45:56.357Z,25.73
2022-07-27T08:48:25.996Z,25.78
2022-07-27T08:50:54.058Z,25.94
2022-07-27T08:53:22.561Z,26.16
2022-07-27T08:55:50.101Z,26.31
2022-07-27T08:58:17.454Z,26.21
2022-07-27T09:00:48.010Z,25.99
2022-07-27T09:03:19.448Z,25.71
2022-07-27T09:05:58.391Z,25.46
2022-07-27T09:08:31.411Z,25.29
2022-07-27T09:10:59.485Z,25.16
2022-07-27T09:13:30.454Z,25.17
2022-07-27T09:16:17.974Z,25.22
2022-07-27T09:18:45.933Z,25.30
2022-07-27T09:21:24.027Z,25.31
2022-07-27T09:24:17.915Z,25.31
2022-07-27T09:27:02.700Z,25.16
2022-07-27T09:29:35.849Z,25.06
2022-07-27T09:32:17.514Z,25.01
2022-07-27T09:34:45.104Z,25.06
2022-07-27T09:37:12.289Z,25.21
2022-07-27T09:39:39.225Z,25.43
2022-07-27T09:42:06.170Z,25.62
2022-07-27T09:44:42.109Z,25.71
2022-07-27T09:47:28.524Z,25.61
2022-07-27T09:50:20.478Z,25.42
2022-07-27T09:52:47.621Z,25.32
2022-07-27T09:55:14.568Z,25.25
2022-07-27T09:57:56.453Z,25.25
2022-07-27T10:00:24.914Z,25.25
2022-07-27T10:02:53.334Z,25.37
2022-07-27T10:05:24.146Z,25.56
2022-07-27T10:07:53.887Z,25.72
2022-07-27T10:10:22.881Z,25.83
2022-07-27T10:12:54.597Z,25.85
2022-07-27T10:15:23.975Z,25.83
2022-07-27T10:18:02.064Z,25.81
2022-07-27T10:20:33.360Z,25.75
2022-07-27T10:23:00.326Z,25.64
2022-07-27T10:25:32.304Z,25.59
2022-07-27T10:28:16.392Z,25.68
2022-07-27T10:30:43.940Z,25.75
2022-07-27T10:33:47.147Z,25.76
2022-07-27T10:36:30.762Z,25.78
2022-07-27T10:39:01.184Z,25.79
2022-07-27T10:41:34.213Z,25.77
2022-07-27T10:44:20.869Z,25.73
2022-07-27T10:47:04.483Z,25.71
2022-07-27T10:49:40.397Z,25.75
2022-07-27T10:53:05.091Z,25.80
2022-07-27T10:55:32.380Z,25.88
2022-07-27T10:58:22.100Z,25.93
2022-07-27T11:00:58.306Z,25.98
2022-07-27T11:03:33.442Z,26.00
2022-07-27T11:06:31.912Z,26.01
2022-07-27T11:11:49.434Z,26.23
2022-07-27T11:14:18.912Z,26.33
2022-07-27T11:16:55.852Z,26.38
2022-07-27T11:19:23.985Z,26.41
2022-07-27T11:21:52.384Z,26.44
2022-07-27T11:24:19.239Z,26.50
2022-07-27T11:26:49.927Z,26.57
2022-07-27T11:29:19.858Z,26.71
2022-07-27T11:31:56.695Z,26.82
2022-07-27T11:34:36.360Z,26.84
2022-07-27T11:37:13.976Z,26.74
2022-07-27T11:39:59.882Z,26.66
2022-07-27T11:42:40.353Z,26.55
2022-07-27T11:45:07.806Z,26.50
2022-07-27T11:47:35.722Z,26.50
2022-07-27T11:50:11.976Z,26.47
2022-07-27T11:52:39.064Z,26.44
2022-07-27T11:55:07.771Z,26.47
2022-07-27T11:57:35.969Z,26.47
2022-07-27T12:00:05.080Z,26.45
2022-07-27T12:02:31.978Z,26.48
2022-07-27T12:05:02.957Z,26.57
2022-07-27T12:07:32.572Z,26.68
2022-07-27T12:10:02.408Z,26.89
2022-07-27T12:12:34.850Z,27.04
2022-07-27T12:15:44.822Z,27.09
2022-07-27T12:18:02.892Z,27.10
2022-07-27T12:20:35.193Z,27.09
2022-07-27T12:23:08.087Z,27.07
2022-07-27T12:25:36.184Z,27.08
2022-07-27T12:28:15.064Z,27.13
2022-07-27T12:30:47.199Z,27.16
2022-07-27T12:33:37.635Z,27.24
2022-07-27T12:36:07.814Z,27.34
2022-07-27T12:38:45.820Z,27.38
2022-07-27T12:41:32.552Z,27.30
2022-07-27T12:44:11.946Z,27.22
2022-07-27T12:46:59.293Z,27.27
2022-07-27T12:49:28.642Z,27.40
2022-07-27T12:52:09.454Z,27.50
2022-07-27T12:54:37.381Z,27.51
2022-07-27T12:57:04.543Z,27.45
2022-07-27T12:59:31.367Z,27.43
2022-07-27T13:01:58.270Z,27.41
2022-07-27T13:04:25.209Z,27.40
2022-07-27T13:06:52.009Z,27.40
2022-07-27T13:09:18.842Z,27.39
2022-07-27T13:11:48.147Z,27.41
2022-07-27T13:14:15.574Z,27.43
2022-07-27T13:16:42.442Z,27.47
2022-07-27T13:19:09.605Z,27.51
2022-07-27T13:21:36.717Z,27.51
2022-07-27T13:24:03.786Z,27.49
2022-07-27T13:26:30.564Z,27.47
2022-07-27T13:28:57.402Z,27.46
2022-07-27T13:31:24.230Z,27.44
2022-07-27T13:33:52.056Z,27.40
2022-07-27T13:36:18.848Z,27.34
2022-07-27T13:38:45.645Z,27.28
2022-07-27T13:41:12.553Z,27.24
2022-07-27T13:43:39.386Z,27.34
2022-07-27T13:46:08.400Z,27.40
2022-07-27T13:48:35.371Z,27.38
2022-07-27T13:51:03.397Z,27.37
2022-07-27T13:53:30.491Z,27.36
2022-07-27T13:55:57.276Z,27.31
2022-07-27T13:58:24.246Z,27.27
2022-07-27T14:00:51.709Z,27.27
2022-07-27T14:03:18.695Z,27.29
2022-07-27T14:05:49.588Z,27.26
2022-07-27T14:08:18.608Z,27.28
2022-07-27T14:10:45.430Z,27.30
2022-07-27T14:13:15.917Z,27.29
2022-07-27T14:15:53.489Z,27.31
2022-07-27T14:18:26.560Z,27.28
2022-07-27T14:20:55.723Z,27.23
2022-07-27T14:23:24.014Z,27.15
2022-07-27T14:25:51.804Z,27.05
2022-07-27T14:28:18.682Z,26.95
2022-07-27T14:30:47.080Z,26.91
2022-07-27T14:33:14.776Z,26.82
2022-07-27T14:35:42.062Z,26.74
2022-07-27T14:38:10.044Z,26.65
2022-07-27T14:40:37.920Z,26.60
2022-07-27T14:43:05.370Z,26.57
2022-07-27T14:45:43.977Z,26.53
2022-07-27T14:48:15.942Z,26.52
2022-07-27T14:50:46.146Z,26.52
2022-07-27T14:53:13.205Z,26.55
2022-07-27T14:55:42.327Z,26.58
2022-07-27T14:58:11.227Z,26.65
2022-07-27T15:00:39.751Z,26.66
2022-07-27T15:03:07.249Z,26.65
2022-07-27T15:05:50.019Z,26.63
2022-07-27T15:08:20.589Z,26.61
2022-07-27T15:10:48.722Z,26.61
2022-07-27T15:13:16.285Z,26.60
2022-07-27T15:15:43.127Z,26.59
2022-07-27T15:18:10.086Z,26.64
2022-07-27T15:20:36.933Z,26.69
2022-07-27T15:23:04.316Z,26.76
2022-07-27T15:25:31.115Z,26.83
2022-07-27T15:27:58.237Z,26.89
2022-07-27T15:30:25.037Z,26.96
2022-07-27T15:32:51.835Z,27.07
2022-07-27T15:35:18.689Z,27.16
2022-07-27T15:37:54.560Z,27.20
2022-07-27T15:40:38.374Z,27.20
2022-07-27T15:43:10.474Z,27.18
2022-07-27T15:45:47.093Z,27.20
2022-07-27T15:48:16.210Z,27.21
2022-07-27T15:50:48.351Z,27.20
2022-07-27T15:53:15.558Z,27.16
2022-07-27T15:55:43.722Z,27.14
2022-07-27T15:58:11.430Z,27.16
2022-07-27T16:00:40.903Z,27.10
2022-07-27T16:03:10.433Z,27.07
2022-07-27T16:05:38.692Z,27.00
2022-07-27T16:08:07.481Z,26.91
2022-07-27T16:10:34.326Z,26.85
2022-07-27T16:13:01.330Z,26.82
2022-07-27T16:15:47.120Z,26.76
2022-07-27T16:18:13.964Z,26.71
2022-07-27T16:20:40.793Z,26.67
2022-07-27T16:23:14.417Z,26.64
2022-07-27T16:26:02.534Z,26.59
2022-07-27T16:28:32.190Z,26.50
2022-07-27T16:30:59.133Z,26.43
2022-07-27T16:33:26.160Z,26.34
2022-07-27T16:35:53.130Z,26.25
2022-07-27T16:38:19.963Z,26.19
2022-07-27T16:40:46.800Z,26.14
2022-07-27T16:43:13.593Z,26.08
2022-07-27T16:45:40.421Z,26.04
2022-07-27T16:48:07.855Z,26.00
2022-07-27T16:50:34.897Z,25.95
2022-07-27T16:53:01.669Z,25.91
2022-07-27T16:55:28.669Z,25.86
2022-07-27T16:57:55.880Z,25.83
2022-07-27T17:00:23.254Z,25.81
2022-07-27T17:02:50.469Z,25.81
2022-07-27T17:05:17.271Z,25.79
2022-07-27T17:07:44.071Z,25.79
2022-07-27T17:10:10.934Z,25.81
2022-07-27T17:12:39.070Z,25.83
2022-07-27T17:15:07.765Z,25.82
2022-07-27T17:17:34.895Z,25.83
2022-07-27T17:20:01.799Z,25.82
2022-07-27T17:22:28.603Z,25.81
2022-07-27T17:24:55.434Z,25.79
2022-07-27T17:27:22.302Z,25.81
2022-07-27T17:29:51.481Z,25.81
2022-07-27T17:32:18.305Z,25.78
2022-07-27T17:34:45.549Z,25.79
2022-07-27T17:37:13.091Z,25.77
2022-07-27T17:39:39.902Z,25.78
2022-07-27T17:42:07.054Z,25.78
2022-07-27T17:44:34.072Z,25.76
2022-07-27T17:47:01.712Z,25.73
2022-07-27T17:49:28.683Z,25.73
2022-07-27T17:51:55.986Z,25.74
2022-07-27T17:54:24.303Z,25.74
2022-07-27T17:56:51.104Z,25.73
2022-07-27T17:59:37.178Z,25.74
2022-07-27T18:02:05.292Z,25.74
2022-07-27T18:04:38.939Z,25.73
2022-07-27T18:07:06.391Z,25.71
2022-07-27T18:09:33.602Z,25.70
2022-07-27T18:12:00.462Z,25.68
2022-07-27T18:14:27.425Z,25.67
2022-07-27T18:16:54.275Z,25.67
2022-07-27T18:19:21.151Z,25.67
2022-07-27T18:21:47.953Z,25.63
2022-07-27T18:24:15.673Z,25.62
2022-07-27T18:26:42.616Z,25.59
2022-07-27T18:29:09.939Z,25.54
2022-07-27T18:31:37.353Z,25.48
2022-07-27T18:34:06.849Z,25.44
2022-07-27T18:36:38.745Z,25.35
2022-07-27T18:39:05.730Z,25.29
2022-07-27T18:41:32.509Z,25.19
2022-07-27T18:43:59.334Z,25.10
2022-07-27T18:46:26.633Z,25.02
2022-07-27T18:48:53.609Z,24.95
2022-07-27T18:51:21.564Z,24.89
2022-07-27T18:53:48.927Z,24.82
2022-07-27T18:56:15.933Z,24.77
2022-07-27T18:58:42.759Z,24.70
2022-07-27T19:01:09.719Z,24.64
2022-07-27T19:03:37.247Z,24.60
2022-07-27T19:06:06.736Z,24.59
2022-07-27T19:08:37.332Z,24.53
2022-07-27T19:11:04.130Z,24.50
2022-07-27T19:13:30.917Z,24.46
2022-07-27T19:16:00.744Z,24.43
2022-07-27T19:18:27.556Z,24.39
2022-07-27T19:20:55.393Z,24.35
2022-07-27T19:23:23.399Z,24.31
2022-07-27T19:25:50.246Z,24.28
2022-07-27T19:28:20.810Z,24.24
2022-07-27T19:30:48.595Z,24.19
2022-07-27T19:33:15.419Z,24.17
2022-07-27T19:35:42.409Z,24.13
2022-07-27T19:38:10.485Z,24.06
2022-07-27T19:40:45.846Z,24.01
2022-07-27T19:43:15.108Z,23.96
2022-07-27T19:45:42.153Z,23.90
2022-07-27T19:48:09.250Z,23.82
2022-07-27T19:50:36.039Z,23.77
2022-07-27T19:53:04.109Z,23.74
2022-07-27T19:55:30.904Z,23.70
2022-07-27T19:57:57.684Z,23.64
2022-07-27T20:00:24.606Z,23.58
2022-07-27T20:02:51.530Z,23.56
2022-07-27T20:05:18.462Z,23.49
2022-07-27T20:07:45.346Z,23.42
2022-07-27T20:10:12.351Z,23.38
2022-07-27T20:12:39.204Z,23.33
2022-07-27T20:15:06.785Z,23.27
2022-07-27T20:17:37.570Z,23.20
2022-07-27T20:20:08.963Z,23.14
2022-07-27T20:22:35.981Z,23.10
2022-07-27T20:25:03.027Z,23.06
2022-07-27T20:27:29.865Z,22.99
2022-07-27T20:29:56.697Z,22.94
2022-07-27T20:32:23.562Z,22.89
2022-07-27T20:34:50.350Z,22.82
2022-07-27T20:37:17.594Z,22.76
2022-07-27T20:39:44.417Z,22.70
2022-07-27T20:42:11.247Z,22.65
2022-07-27T20:44:38.062Z,22.63
2022-07-27T20:47:06.201Z,22.56
2022-07-27T20:49:34.232Z,22.54
2022-07-27T20:52:01.975Z,22.50
2022-07-27T20:54:29.586Z,22.47
2022-07-27T20:56:56.995Z,22.42
2022-07-27T20:59:24.162Z,22.37
2022-07-27T21:01:52.513Z,22.31
2022-07-27T21:04:20.335Z,22.28
2022-07-27T21:06:47.162Z,22.23
2022-07-27T21:09:14.421Z,22.20
2022-07-27T21:11:41.488Z,22.15
2022-07-27T21:14:09.540Z,22.12
2022-07-27T21:16:37.095Z,22.11
2022-07-27T21:19:04.033Z,22.09
2022-07-27T21:21:30.822Z,22.04
2022-07-27T21:24:17.347Z,22.02
2022-07-27T21:26:48.667Z,21.95
2022-07-27T21:29:16.410Z,21.92
2022-07-27T21:31:46.852Z,21.89
2022-07-27T21:34:18.841Z,21.86
2022-07-27T21:36:46.718Z,21.81
2022-07-27T21:39:13.593Z,21.76
2022-07-27T21:41:40.746Z,21.72
2022-07-27T21:44:07.567Z,21.65
2022-07-27T21:46:34.352Z,21.62
2022-07-27T21:49:01.201Z,21.57
2022-07-27T21:51:28.108Z,21.54
2022-07-27T21:53:55.057Z,21.48
2022-07-27T21:56:21.875Z,21.45
2022-07-27T21:58:48.887Z,21.41
2022-07-27T22:01:16.574Z,21.35
2022-07-27T22:03:44.025Z,21.30
2022-07-27T22:06:11.248Z,21.25
2022-07-27T22:08:38.782Z,21.19
2022-07-27T22:11:05.854Z,21.15
2022-07-27T22:13:32.763Z,21.10
2022-07-27T22:15:59.658Z,21.08
2022-07-27T22:18:26.505Z,21.05
2022-07-27T22:20:53.288Z,20.99
2022-07-27T22:23:20.253Z,20.96
2022-07-27T22:25:47.051Z,20.96
2022-07-27T22:28:13.856Z,20.95
2022-07-27T22:30:40.887Z,20.95
2022-07-27T22:33:08.066Z,20.96
2022-07-27T22:35:35.247Z,20.97
2022-07-27T22:38:02.388Z,20.95
2022-07-27T22:40:29.217Z,20.92
2022-07-27T22:42:56.085Z,20.89
2022-07-27T22:45:23.151Z,20.85
2022-07-27T22:47:50.370Z,20.83
2022-07-27T22:50:20.222Z,20.80
2022-07-27T22:52:48.194Z,20.78
2022-07-27T22:55:15.831Z,20.74
2022-07-27T22:57:42.656Z,20.71
2022-07-27T23:00:10.517Z,20.70
2022-07-27T23:02:38.011Z,20.68
2022-07-27T23:05:05.467Z,20.65
2022-07-27T23:07:32.402Z,20.63
2022-07-27T23:09:59.193Z,20.61
2022-07-27T23:12:25.979Z,20.60
2022-07-27T23:14:52.833Z,20.57
2022-07-27T23:17:19.631Z,20.56
2022-07-27T23:19:46.407Z,20.54
2022-07-27T23:22:13.268Z,20.52
2022-07-27T23:24:44.153Z,20.51
2022-07-27T23:27:11.943Z,20.48
2022-07-27T23:29:38.733Z,20.47
2022-07-27T23:32:08.203Z,20.44
2022-07-27T23:34:35.885Z,20.40
2022-07-27T23:37:02.697Z,20.37
2022-07-27T23:39:29.519Z,20.34
2022-07-27T23:41:56.391Z,20.32
2022-07-27T23:44:23.231Z,20.28
2022-07-27T23:46:50.330Z,20.25
2022-07-27T23:49:17.252Z,20.22
2022-07-27T23:51:44.757Z,20.18
2022-07-27T23:54:11.923Z,20.16
2022-07-27T23:56:39.002Z,20.10
2022-07-27T23:59:05.802Z,20.06
